sensor_id;sensor_type;location;lat;lon;timestamp;pressure;altitude;pressure_sealevel;temperature;humidity
77799;BME280;66989;50.426;15.352;2023-04-09T00:03:27;98972.59;;;5.08;86.64
77799;BME280;66989;50.426;15.352;2023-04-09T00:05:53;98965.69;;;5.07;86.22
77799;BME280;66989;50.426;15.352;2023-04-09T00:08:19;98968.16;;;5.10;87.00
77799;BME280;66989;50.426;15.352;2023-04-09T00:10:44;98968.16;;;5.10;86.33
77799;BME280;66989;50.426;15.352;2023-04-09T00:13:10;98964.66;;;5.11;86.18
77799;BME280;66989;50.426;15.352;2023-04-09T00:15:36;98966.34;;;5.12;86.21
77799;BME280;66989;50.426;15.352;2023-04-09T00:18:01;98963.72;;;5.12;86.13
77799;BME280;66989;50.426;15.352;2023-04-09T00:20:26;98965.53;;;5.10;86.25
77799;BME280;66989;50.426;15.352;2023-04-09T00:22:52;98964.66;;;5.11;86.09
77799;BME280;66989;50.426;15.352;2023-04-09T00:25:18;98964.66;;;5.11;85.58
77799;BME280;66989;50.426;15.352;2023-04-09T00:27:44;98964.66;;;5.11;86.11
77799;BME280;66989;50.426;15.352;2023-04-09T00:30:09;98965.50;;;5.11;86.16
77799;BME280;66989;50.426;15.352;2023-04-09T00:32:35;98962.88;;;5.11;86.31
77799;BME280;66989;50.426;15.352;2023-04-09T00:35:00;98959.41;;;5.11;85.89
77799;BME280;66989;50.426;15.352;2023-04-09T00:37:26;98967.25;;;5.11;86.27
77799;BME280;66989;50.426;15.352;2023-04-09T00:39:51;98966.44;;;5.09;86.54
77799;BME280;66989;50.426;15.352;2023-04-09T00:42:17;98968.16;;;5.10;86.28
77799;BME280;66989;50.426;15.352;2023-04-09T00:44:42;98966.44;;;5.09;86.43
77799;BME280;66989;50.426;15.352;2023-04-09T00:47:07;98968.16;;;5.10;86.24
77799;BME280;66989;50.426;15.352;2023-04-09T00:49:33;98967.38;;;5.08;85.98
77799;BME280;66989;50.426;15.352;2023-04-09T00:51:58;98975.22;;;5.08;86.17
77799;BME280;66989;50.426;15.352;2023-04-09T00:54:23;98976.06;;;5.08;86.21
77799;BME280;66989;50.426;15.352;2023-04-09T00:56:50;98969.06;;;5.09;86.27
77799;BME280;66989;50.426;15.352;2023-04-09T00:59:15;98967.31;;;5.09;86.14
77799;BME280;66989;50.426;15.352;2023-04-09T01:01:41;98970.72;;;5.11;85.84
77799;BME280;66989;50.426;15.352;2023-04-09T01:04:06;98968.16;;;5.10;85.62
77799;BME280;66989;50.426;15.352;2023-04-09T01:06:52;98972.47;;;5.11;85.72
77799;BME280;66989;50.426;15.352;2023-04-09T01:12:15;98962.03;;;5.11;85.58
77799;BME280;66989;50.426;15.352;2023-04-09T01:14:57;98968.94;;;5.12;85.63
77799;BME280;66989;50.426;15.352;2023-04-09T01:17:30;98965.50;;;5.11;85.64
77799;BME280;66989;50.426;15.352;2023-04-09T01:20:01;98973.34;;;5.11;85.51
77799;BME280;66989;50.426;15.352;2023-04-09T01:22:39;98965.41;;;5.13;85.83
77799;BME280;66989;50.426;15.352;2023-04-09T01:25:11;98968.03;;;5.13;85.65
77799;BME280;66989;50.426;15.352;2023-04-09T01:30:28;98970.75;;;5.10;85.45
77799;BME280;66989;50.426;15.352;2023-04-09T01:32:56;98966.53;;;5.07;85.30
77799;BME280;66989;50.426;15.352;2023-04-09T01:35:23;98961.38;;;5.06;85.73
77799;BME280;66989;50.426;15.352;2023-04-09T01:37:51;98962.34;;;5.03;85.94
77799;BME280;66989;50.426;15.352;2023-04-09T01:40:17;98961.50;;;5.03;86.23
77799;BME280;66989;50.426;15.352;2023-04-09T01:42:44;98963.31;;;5.01;85.80
77799;BME280;66989;50.426;15.352;2023-04-09T01:45:12;98968.66;;;4.98;86.26
77799;BME280;66989;50.426;15.352;2023-04-09T01:47:39;98958.41;;;4.93;86.16
77799;BME280;66989;50.426;15.352;2023-04-09T01:50:05;98961.16;;;4.90;86.04
77799;BME280;66989;50.426;15.352;2023-04-09T01:52:31;98961.16;;;4.90;86.53
77799;BME280;66989;50.426;15.352;2023-04-09T01:54:56;98960.34;;;4.88;86.60
77799;BME280;66989;50.426;15.352;2023-04-09T01:57:22;98960.44;;;4.86;86.48
77799;BME280;66989;50.426;15.352;2023-04-09T01:59:47;98964.81;;;4.86;86.65
77799;BME280;66989;50.426;15.352;2023-04-09T02:02:17;98967.50;;;4.84;86.62
77799;BME280;66989;50.426;15.352;2023-04-09T02:04:46;98963.16;;;4.83;86.56
77799;BME280;66989;50.426;15.352;2023-04-09T02:07:40;98956.25;;;4.82;86.80
77799;BME280;66989;50.426;15.352;2023-04-09T02:10:07;98968.47;;;4.82;86.60
77799;BME280;66989;50.426;15.352;2023-04-09T02:12:36;98965.06;;;4.80;87.06
77799;BME280;66989;50.426;15.352;2023-04-09T02:15:05;98971.91;;;4.82;87.35
77799;BME280;66989;50.426;15.352;2023-04-09T02:17:31;98967.78;;;4.77;87.11
77799;BME280;66989;50.426;15.352;2023-04-09T02:19:56;98979.22;;;4.74;86.51
77799;BME280;66989;50.426;15.352;2023-04-09T02:22:22;98980.13;;;4.73;86.94
77799;BME280;66989;50.426;15.352;2023-04-09T02:24:47;98983.66;;;4.72;87.13
77799;BME280;66989;50.426;15.352;2023-04-09T02:27:12;98980.97;;;4.74;87.47
77799;BME280;66989;50.426;15.352;2023-04-09T02:29:40;98978.31;;;4.75;87.27
77799;BME280;66989;50.426;15.352;2023-04-09T02:32:06;98980.00;;;4.76;87.12
77799;BME280;66989;50.426;15.352;2023-04-09T02:34:32;98979.16;;;4.76;87.34
77799;BME280;66989;50.426;15.352;2023-04-09T02:36:57;98967.88;;;4.75;87.02
77799;BME280;66989;50.426;15.352;2023-04-09T02:39:23;98965.25;;;4.75;87.24
77799;BME280;66989;50.426;15.352;2023-04-09T02:41:48;98967.88;;;4.75;87.14
77799;BME280;66989;50.426;15.352;2023-04-09T02:44:13;98967.03;;;4.75;86.97
77799;BME280;66989;50.426;15.352;2023-04-09T02:46:40;98972.16;;;4.76;87.63
77799;BME280;66989;50.426;15.352;2023-04-09T02:49:05;98977.47;;;4.75;87.01
77799;BME280;66989;50.426;15.352;2023-04-09T02:51:33;98977.47;;;4.75;87.78
77799;BME280;66989;50.426;15.352;2023-04-09T02:53:59;98972.34;;;4.72;87.85
77799;BME280;66989;50.426;15.352;2023-04-09T02:56:24;98974.13;;;4.71;87.86
77799;BME280;66989;50.426;15.352;2023-04-09T02:58:50;98976.72;;;4.71;87.70
77799;BME280;66989;50.426;15.352;2023-04-09T03:01:18;98983.78;;;4.69;87.59
77799;BME280;66989;50.426;15.352;2023-04-09T03:03:43;98982.97;;;4.67;87.41
77799;BME280;66989;50.426;15.352;2023-04-09T03:06:09;98978.69;;;4.66;87.51
77799;BME280;66989;50.426;15.352;2023-04-09T03:08:34;98983.91;;;4.66;87.93
77799;BME280;66989;50.426;15.352;2023-04-09T03:11:00;98979.44;;;4.68;88.00
77799;BME280;66989;50.426;15.352;2023-04-09T03:13:26;98977.69;;;4.69;87.98
77799;BME280;66989;50.426;15.352;2023-04-09T03:15:52;98986.41;;;4.69;87.66
77799;BME280;66989;50.426;15.352;2023-04-09T03:18:18;98982.06;;;4.68;87.90
77799;BME280;66989;50.426;15.352;2023-04-09T03:20:43;98978.56;;;4.69;88.59
77799;BME280;66989;50.426;15.352;2023-04-09T03:23:09;98973.34;;;4.69;88.43
77799;BME280;66989;50.426;15.352;2023-04-09T03:25:34;98969.06;;;4.67;88.08
77799;BME280;66989;50.426;15.352;2023-04-09T03:28:00;98975.28;;;4.64;88.50
77799;BME280;66989;50.426;15.352;2023-04-09T03:30:25;98965.69;;;4.65;88.54
77799;BME280;66989;50.426;15.352;2023-04-09T03:32:50;98969.19;;;4.64;88.66
77799;BME280;66989;50.426;15.352;2023-04-09T03:35:16;98987.53;;;4.62;88.50
77799;BME280;66989;50.426;15.352;2023-04-09T03:37:41;98987.53;;;4.62;88.62
77799;BME280;66989;50.426;15.352;2023-04-09T03:40:07;98958.63;;;4.67;88.29
77799;BME280;66989;50.426;15.352;2023-04-09T03:42:33;98960.47;;;4.65;88.01
77799;BME280;66989;50.426;15.352;2023-04-09T03:44:59;98972.69;;;4.64;87.73
77799;BME280;66989;50.426;15.352;2023-04-09T03:47:24;98970.19;;;4.61;88.35
77799;BME280;66989;50.426;15.352;2023-04-09T03:49:50;98978.00;;;4.61;88.45
77799;BME280;66989;50.426;15.352;2023-04-09T03:52:16;98978.94;;;4.60;88.39
77799;BME280;66989;50.426;15.352;2023-04-09T03:54:42;98963.19;;;4.61;88.53
77799;BME280;66989;50.426;15.352;2023-04-09T03:57:08;98969.25;;;4.62;88.22
77799;BME280;66989;50.426;15.352;2023-04-09T03:59:34;98967.50;;;4.63;88.47
77799;BME280;66989;50.426;15.352;2023-04-09T04:01:59;98970.06;;;4.64;88.38
77799;BME280;66989;50.426;15.352;2023-04-09T04:04:26;98973.56;;;4.63;88.63
77799;BME280;66989;50.426;15.352;2023-04-09T04:06:51;98974.47;;;4.62;88.22
77799;BME280;66989;50.426;15.352;2023-04-09T04:09:17;98980.56;;;4.63;88.64
77799;BME280;66989;50.426;15.352;2023-04-09T04:11:42;98987.53;;;4.62;88.71
77799;BME280;66989;50.426;15.352;2023-04-09T04:14:08;98976.25;;;4.61;88.80
77799;BME280;66989;50.426;15.352;2023-04-09T04:16:33;98980.56;;;4.63;88.86
77799;BME280;66989;50.426;15.352;2023-04-09T04:18:58;98984.94;;;4.62;88.26
77799;BME280;66989;50.426;15.352;2023-04-09T04:21:25;98998.06;;;4.60;88.71
77799;BME280;66989;50.426;15.352;2023-04-09T04:23:52;98991.84;;;4.63;89.28
77799;BME280;66989;50.426;15.352;2023-04-09T04:26:18;98988.38;;;4.63;89.09
77799;BME280;66989;50.426;15.352;2023-04-09T04:28:43;98990.16;;;4.62;89.02
77799;BME280;66989;50.426;15.352;2023-04-09T04:31:11;98990.09;;;4.64;89.25
77799;BME280;66989;50.426;15.352;2023-04-09T04:33:38;98985.75;;;4.64;89.02
77799;BME280;66989;50.426;15.352;2023-04-09T04:36:08;98987.53;;;4.62;89.02
77799;BME280;66989;50.426;15.352;2023-04-09T04:38:37;98986.75;;;4.60;88.87
77799;BME280;66989;50.426;15.352;2023-04-09T04:41:04;98994.59;;;4.60;88.94
77799;BME280;66989;50.426;15.352;2023-04-09T04:43:30;98992.84;;;4.60;89.03
77799;BME280;66989;50.426;15.352;2023-04-09T04:45:56;98997.06;;;4.63;88.96
77799;BME280;66989;50.426;15.352;2023-04-09T04:48:22;98990.09;;;4.64;88.48
77799;BME280;66989;50.426;15.352;2023-04-09T04:50:56;98992.69;;;4.64;88.41
77799;BME280;66989;50.426;15.352;2023-04-09T04:53:22;98990.88;;;4.66;88.58
77799;BME280;66989;50.426;15.352;2023-04-09T04:55:48;98996.84;;;4.69;88.60
77799;BME280;66989;50.426;15.352;2023-04-09T04:58:15;98995.88;;;4.72;88.69
77799;BME280;66989;50.426;15.352;2023-04-09T05:00:42;98995.69;;;4.76;88.57
77799;BME280;66989;50.426;15.352;2023-04-09T05:03:07;98997.38;;;4.77;88.22
77799;BME280;66989;50.426;15.352;2023-04-09T05:05:33;98995.56;;;4.79;87.86
77799;BME280;66989;50.426;15.352;2023-04-09T05:07:59;98994.50;;;4.83;87.93
77799;BME280;66989;50.426;15.352;2023-04-09T05:10:24;98996.03;;;4.89;87.51
77799;BME280;66989;50.426;15.352;2023-04-09T05:12:50;99000.19;;;4.95;87.33
77799;BME280;66989;50.426;15.352;2023-04-09T05:15:15;98998.84;;;5.05;87.35
77799;BME280;66989;50.426;15.352;2023-04-09T05:17:42;99001.94;;;5.14;86.89
77799;BME280;66989;50.426;15.352;2023-04-09T05:20:10;99005.81;;;5.26;86.30
77799;BME280;66989;50.426;15.352;2023-04-09T05:22:35;99007.97;;;5.37;85.81
77799;BME280;66989;50.426;15.352;2023-04-09T05:25:01;99008.19;;;5.53;85.38
77799;BME280;66989;50.426;15.352;2023-04-09T05:27:27;99007.63;;;5.65;84.61
77799;BME280;66989;50.426;15.352;2023-04-09T05:29:53;99017.69;;;5.74;84.40
77799;BME280;66989;50.426;15.352;2023-04-09T05:32:19;99008.66;;;5.81;83.86
77799;BME280;66989;50.426;15.352;2023-04-09T05:34:44;99017.31;;;5.83;83.58
77799;BME280;66989;50.426;15.352;2023-04-09T05:37:10;99016.22;;;5.87;83.39
77799;BME280;66989;50.426;15.352;2023-04-09T05:39:35;99018.72;;;5.90;83.25
77799;BME280;66989;50.426;15.352;2023-04-09T05:42:01;99020.38;;;5.93;83.08
77799;BME280;66989;50.426;15.352;2023-04-09T05:44:26;99025.53;;;5.95;83.32
77799;BME280;66989;50.426;15.352;2023-04-09T05:46:51;99019.28;;;5.97;83.03
77799;BME280;66989;50.426;15.352;2023-04-09T05:49:17;99016.63;;;5.99;83.06
77799;BME280;66989;50.426;15.352;2023-04-09T05:51:42;99016.66;;;5.97;83.35
77799;BME280;66989;50.426;15.352;2023-04-09T05:54:08;99005.31;;;5.98;83.21
77799;BME280;66989;50.426;15.352;2023-04-09T05:56:34;99015.69;;;6.00;83.04
77799;BME280;66989;50.426;15.352;2023-04-09T05:59:00;99015.63;;;6.01;82.97
77799;BME280;66989;50.426;15.352;2023-04-09T06:01:29;99015.53;;;6.03;82.62
77799;BME280;66989;50.426;15.352;2023-04-09T06:03:54;99022.41;;;6.05;82.28
77799;BME280;66989;50.426;15.352;2023-04-09T06:06:21;99021.50;;;6.06;82.31
77799;BME280;66989;50.426;15.352;2023-04-09T06:08:47;99032.78;;;6.08;82.33
77799;BME280;66989;50.426;15.352;2023-04-09T06:11:12;99032.63;;;6.11;82.30
77799;BME280;66989;50.426;15.352;2023-04-09T06:13:39;99034.38;;;6.11;82.32
77799;BME280;66989;50.426;15.352;2023-04-09T06:16:06;99042.53;;;6.05;82.85
77799;BME280;66989;50.426;15.352;2023-04-09T06:18:33;99038.22;;;6.04;83.24
77799;BME280;66989;50.426;15.352;2023-04-09T06:21:06;99033.81;;;6.04;83.10
77799;BME280;66989;50.426;15.352;2023-04-09T06:23:32;99030.91;;;6.10;83.42
77799;BME280;66989;50.426;15.352;2023-04-09T06:25:59;99040.25;;;6.16;82.68
77799;BME280;66989;50.426;15.352;2023-04-09T06:28:26;99047.47;;;6.11;83.37
77799;BME280;66989;50.426;15.352;2023-04-09T06:30:52;99041.31;;;6.12;82.78
77799;BME280;66989;50.426;15.352;2023-04-09T06:33:19;99044.72;;;6.14;83.95
77799;BME280;66989;50.426;15.352;2023-04-09T06:35:44;99036.72;;;6.17;84.18
77799;BME280;66989;50.426;15.352;2023-04-09T06:38:10;99048.56;;;6.26;83.40
77799;BME280;66989;50.426;15.352;2023-04-09T06:40:39;99044.81;;;6.31;83.11
77799;BME280;66989;50.426;15.352;2023-04-09T06:43:05;99036.56;;;6.39;82.15
77799;BME280;66989;50.426;15.352;2023-04-09T06:45:31;99041.47;;;6.47;82.42
77799;BME280;66989;50.426;15.352;2023-04-09T06:47:57;99050.53;;;6.58;80.88
77799;BME280;66989;50.426;15.352;2023-04-09T06:50:23;99038.69;;;6.68;81.42
77799;BME280;66989;50.426;15.352;2023-04-09T06:52:50;99036.50;;;6.78;81.15
77799;BME280;66989;50.426;15.352;2023-04-09T06:55:16;99040.06;;;6.94;79.59
77799;BME280;66989;50.426;15.352;2023-04-09T06:57:41;99037.50;;;7.12;78.66
77799;BME280;66989;50.426;15.352;2023-04-09T07:00:07;99041.97;;;7.27;77.92
77799;BME280;66989;50.426;15.352;2023-04-09T07:02:35;99037.19;;;7.35;78.00
77799;BME280;66989;50.426;15.352;2023-04-09T07:05:01;99044.28;;;7.51;77.97
77799;BME280;66989;50.426;15.352;2023-04-09T07:07:27;99043.50;;;7.66;77.94
77799;BME280;66989;50.426;15.352;2023-04-09T07:09:53;99043.72;;;7.79;76.56
77799;BME280;66989;50.426;15.352;2023-04-09T07:12:29;99045.81;;;7.89;77.12
77799;BME280;66989;50.426;15.352;2023-04-09T07:14:58;99045.81;;;7.89;77.97
77799;BME280;66989;50.426;15.352;2023-04-09T07:17:24;99048.63;;;8.19;77.74
77799;BME280;66989;50.426;15.352;2023-04-09T07:19:49;99051.38;;;8.49;76.09
77799;BME280;66989;50.426;15.352;2023-04-09T07:22:16;99054.09;;;8.64;75.88
77799;BME280;66989;50.426;15.352;2023-04-09T07:24:43;99054.34;;;8.75;76.21
77799;BME280;66989;50.426;15.352;2023-04-09T07:27:08;99055.28;;;8.90;74.59
77799;BME280;66989;50.426;15.352;2023-04-09T07:29:35;99060.06;;;8.83;73.68
77799;BME280;66989;50.426;15.352;2023-04-09T07:32:00;99066.16;;;8.99;72.41
77799;BME280;66989;50.426;15.352;2023-04-09T07:34:26;99050.66;;;9.25;71.60
77799;BME280;66989;50.426;15.352;2023-04-09T07:36:52;99057.81;;;9.07;72.22
77799;BME280;66989;50.426;15.352;2023-04-09T07:39:18;99060.53;;;9.05;71.80
77799;BME280;66989;50.426;15.352;2023-04-09T07:41:45;99066.25;;;9.28;71.10
77799;BME280;66989;50.426;15.352;2023-04-09T07:44:12;99055.09;;;9.39;71.43
77799;BME280;66989;50.426;15.352;2023-04-09T07:46:38;99054.41;;;10.24;68.05
77799;BME280;66989;50.426;15.352;2023-04-09T07:49:03;99044.16;;;11.43;64.30
77799;BME280;66989;50.426;15.352;2023-04-09T07:51:30;99042.97;;;12.75;60.11
77799;BME280;66989;50.426;15.352;2023-04-09T07:53:55;99044.38;;;13.04;58.21
77799;BME280;66989;50.426;15.352;2023-04-09T07:56:21;99043.75;;;13.01;58.19
77799;BME280;66989;50.426;15.352;2023-04-09T07:58:46;99051.81;;;12.62;58.92
77799;BME280;66989;50.426;15.352;2023-04-09T08:01:13;99046.19;;;11.52;61.92
77799;BME280;66989;50.426;15.352;2023-04-09T08:03:38;99063.25;;;10.66;65.79
77799;BME280;66989;50.426;15.352;2023-04-09T08:06:04;99055.38;;;10.51;66.63
77799;BME280;66989;50.426;15.352;2023-04-09T08:08:30;99066.63;;;10.10;68.25
77799;BME280;66989;50.426;15.352;2023-04-09T08:10:55;99055.91;;;9.99;68.46
77799;BME280;66989;50.426;15.352;2023-04-09T08:13:22;99066.03;;;9.77;69.14
77799;BME280;66989;50.426;15.352;2023-04-09T08:15:49;99068.84;;;9.74;69.41
77799;BME280;66989;50.426;15.352;2023-04-09T08:18:15;99068.63;;;9.63;69.63
77799;BME280;66989;50.426;15.352;2023-04-09T08:20:40;99072.34;;;9.89;68.64
77799;BME280;66989;50.426;15.352;2023-04-09T08:23:10;99063.34;;;10.35;66.95
77799;BME280;66989;50.426;15.352;2023-04-09T08:25:35;99060.31;;;10.84;65.78
77799;BME280;66989;50.426;15.352;2023-04-09T08:28:01;99065.44;;;11.27;64.84
77799;BME280;66989;50.426;15.352;2023-04-09T08:30:26;99069.19;;;11.90;63.11
77799;BME280;66989;50.426;15.352;2023-04-09T08:32:52;99068.13;;;12.18;60.83
77799;BME280;66989;50.426;15.352;2023-04-09T08:35:18;99066.13;;;12.47;61.11
77799;BME280;66989;50.426;15.352;2023-04-09T08:37:43;99070.47;;;12.10;61.07
77799;BME280;66989;50.426;15.352;2023-04-09T08:40:09;99056.66;;;12.68;58.95
77799;BME280;66989;50.426;15.352;2023-04-09T08:42:35;99056.81;;;13.15;58.23
77799;BME280;66989;50.426;15.352;2023-04-09T08:45:05;99054.81;;;13.42;57.54
77799;BME280;66989;50.426;15.352;2023-04-09T08:47:32;99055.94;;;13.03;58.06
77799;BME280;66989;50.426;15.352;2023-04-09T08:50:00;99063.25;;;11.86;60.82
77799;BME280;66989;50.426;15.352;2023-04-09T08:52:32;99064.50;;;11.81;62.13
77799;BME280;66989;50.426;15.352;2023-04-09T08:54:58;99068.34;;;11.37;63.08
77799;BME280;66989;50.426;15.352;2023-04-09T08:57:24;99064.84;;;11.36;63.13
77799;BME280;66989;50.426;15.352;2023-04-09T08:59:49;99067.25;;;11.27;63.03
77799;BME280;66989;50.426;15.352;2023-04-09T09:02:14;99066.19;;;11.82;62.02
77799;BME280;66989;50.426;15.352;2023-04-09T09:04:47;99059.03;;;12.22;61.29
77799;BME280;66989;50.426;15.352;2023-04-09T09:07:13;99055.88;;;12.55;60.27
77799;BME280;66989;50.426;15.352;2023-04-09T09:09:53;99062.59;;;12.59;59.53
77799;BME280;66989;50.426;15.352;2023-04-09T09:12:37;99061.00;;;13.06;58.64
77799;BME280;66989;50.426;15.352;2023-04-09T09:15:05;99060.66;;;13.35;57.06
77799;BME280;66989;50.426;15.352;2023-04-09T09:17:31;99049.69;;;13.63;57.04
77799;BME280;66989;50.426;15.352;2023-04-09T09:19:57;99060.59;;;13.47;56.20
77799;BME280;66989;50.426;15.352;2023-04-09T09:22:23;99062.78;;;12.69;58.64
77799;BME280;66989;50.426;15.352;2023-04-09T09:24:50;99061.69;;;12.97;58.19
77799;BME280;66989;50.426;15.352;2023-04-09T09:27:33;99067.47;;;13.02;58.81
77799;BME280;66989;50.426;15.352;2023-04-09T09:30:02;99065.16;;;13.21;58.60
77799;BME280;66989;50.426;15.352;2023-04-09T09:32:28;99065.00;;;13.36;57.86
77799;BME280;66989;50.426;15.352;2023-04-09T09:35:02;99058.69;;;13.50;57.14
77799;BME280;66989;50.426;15.352;2023-04-09T09:37:29;99069.28;;;13.50;58.00
77799;BME280;66989;50.426;15.352;2023-04-09T09:39:57;99066.75;;;13.48;57.16
77799;BME280;66989;50.426;15.352;2023-04-09T09:42:23;99064.53;;;13.42;56.32
77799;BME280;66989;50.426;15.352;2023-04-09T09:44:49;99073.53;;;12.42;59.63
77799;BME280;66989;50.426;15.352;2023-04-09T09:47:17;99075.53;;;11.87;60.71
77799;BME280;66989;50.426;15.352;2023-04-09T09:49:49;99080.78;;;11.35;62.18
77799;BME280;66989;50.426;15.352;2023-04-09T09:52:27;99084.50;;;10.91;64.14
77799;BME280;66989;50.426;15.352;2023-04-09T09:54:54;99084.81;;;10.72;64.33
77799;BME280;66989;50.426;15.352;2023-04-09T09:57:28;99090.94;;;10.30;66.14
77799;BME280;66989;50.426;15.352;2023-04-09T10:00:13;99084.09;;;10.56;65.70
77799;BME280;66989;50.426;15.352;2023-04-09T10:02:43;99088.34;;;10.58;67.08
77799;BME280;66989;50.426;15.352;2023-04-09T10:05:13;99090.69;;;10.49;67.46
77799;BME280;66989;50.426;15.352;2023-04-09T10:07:40;99087.00;;;10.37;67.69
77799;BME280;66989;50.426;15.352;2023-04-09T10:10:07;99085.00;;;10.12;70.23
77799;BME280;66989;50.426;15.352;2023-04-09T10:12:34;99090.81;;;10.03;70.62
77799;BME280;66989;50.426;15.352;2023-04-09T10:15:02;99086.16;;;9.78;72.31
77799;BME280;66989;50.426;15.352;2023-04-09T10:17:30;99089.75;;;9.77;73.11
77799;BME280;66989;50.426;15.352;2023-04-09T10:20:27;99083.00;;;9.57;73.76
77799;BME280;66989;50.426;15.352;2023-04-09T10:23:02;99090.31;;;9.52;75.34
77799;BME280;66989;50.426;15.352;2023-04-09T10:25:31;99092.56;;;9.28;77.04
77799;BME280;66989;50.426;15.352;2023-04-09T10:27:59;99090.16;;;9.09;78.37
77799;BME280;66989;50.426;15.352;2023-04-09T10:30:35;99098.91;;;8.94;79.09
77799;BME280;66989;50.426;15.352;2023-04-09T10:33:21;99095.47;;;8.76;80.62
77799;BME280;66989;50.426;15.352;2023-04-09T10:36:02;99096.34;;;8.76;81.73
77799;BME280;66989;50.426;15.352;2023-04-09T10:38:44;99093.19;;;8.70;82.27
77799;BME280;66989;50.426;15.352;2023-04-09T10:41:24;99093.38;;;8.67;83.29
77799;BME280;66989;50.426;15.352;2023-04-09T10:43:56;99091.50;;;8.53;84.10
77799;BME280;66989;50.426;15.352;2023-04-09T10:46:30;99094.38;;;8.48;84.67
77799;BME280;66989;50.426;15.352;2023-04-09T10:49:17;99091.53;;;8.36;86.50
77799;BME280;66989;50.426;15.352;2023-04-09T10:52:09;99097.09;;;8.30;86.14
77799;BME280;66989;50.426;15.352;2023-04-09T10:54:40;99101.38;;;8.32;87.57
77799;BME280;66989;50.426;15.352;2023-04-09T10:57:21;99092.50;;;8.17;86.56
77799;BME280;66989;50.426;15.352;2023-04-09T10:59:57;99087.97;;;8.21;86.75
77799;BME280;66989;50.426;15.352;2023-04-09T11:07:53;99092.59;;;7.98;87.63
77799;BME280;66989;50.426;15.352;2023-04-09T11:10:21;99086.84;;;7.92;88.35
77799;BME280;66989;50.426;15.352;2023-04-09T11:12:54;99080.31;;;7.82;87.74
77799;BME280;66989;50.426;15.352;2023-04-09T11:15:20;99083.88;;;7.81;88.45
77799;BME280;66989;50.426;15.352;2023-04-09T11:17:46;99069.13;;;7.78;88.86
77799;BME280;66989;50.426;15.352;2023-04-09T11:20:13;99081.16;;;7.82;89.45
77799;BME280;66989;50.426;15.352;2023-04-09T11:22:39;99076.16;;;7.78;89.30
77799;BME280;66989;50.426;15.352;2023-04-09T11:25:06;99074.22;;;7.81;89.46
77799;BME280;66989;50.426;15.352;2023-04-09T11:27:42;99068.97;;;7.81;89.15
77799;BME280;66989;50.426;15.352;2023-04-09T11:30:09;99069.13;;;7.78;88.26
77799;BME280;66989;50.426;15.352;2023-04-09T11:32:35;99074.84;;;7.86;88.76
77799;BME280;66989;50.426;15.352;2023-04-09T11:35:00;99074.59;;;7.91;89.10
77799;BME280;66989;50.426;15.352;2023-04-09T11:37:26;99074.59;;;7.91;88.41
77799;BME280;66989;50.426;15.352;2023-04-09T11:39:52;99069.50;;;7.88;87.82
77799;BME280;66989;50.426;15.352;2023-04-09T11:42:19;99079.16;;;7.87;86.44
77799;BME280;66989;50.426;15.352;2023-04-09T11:44:44;99070.09;;;7.94;86.97
77799;BME280;66989;50.426;15.352;2023-04-09T11:47:12;99080.19;;;8.02;85.95
77799;BME280;66989;50.426;15.352;2023-04-09T11:49:39;99069.59;;;8.04;86.09
77799;BME280;66989;50.426;15.352;2023-04-09T11:52:04;99069.44;;;8.07;85.60
77799;BME280;66989;50.426;15.352;2023-04-09T11:54:33;99067.78;;;8.21;84.67
77799;BME280;66989;50.426;15.352;2023-04-09T11:56:59;99075.25;;;8.29;86.10
77799;BME280;66989;50.426;15.352;2023-04-09T11:59:26;99075.84;;;8.34;85.35
77799;BME280;66989;50.426;15.352;2023-04-09T12:01:51;99078.16;;;8.40;85.19
77799;BME280;66989;50.426;15.352;2023-04-09T12:04:20;99080.78;;;8.40;84.47
77799;BME280;66989;50.426;15.352;2023-04-09T12:06:45;99092.44;;;8.52;84.39
77799;BME280;66989;50.426;15.352;2023-04-09T12:09:11;99082.28;;;8.62;83.85
77799;BME280;66989;50.426;15.352;2023-04-09T12:11:38;99087.94;;;8.70;82.82
77799;BME280;66989;50.426;15.352;2023-04-09T12:14:06;99086.34;;;8.67;82.92
77799;BME280;66989;50.426;15.352;2023-04-09T12:16:36;99088.03;;;8.68;82.67
77799;BME280;66989;50.426;15.352;2023-04-09T12:19:10;99089.47;;;8.74;83.19
77799;BME280;66989;50.426;15.352;2023-04-09T12:21:45;99087.19;;;8.84;82.43
77799;BME280;66989;50.426;15.352;2023-04-09T12:24:15;99082.69;;;8.86;82.74
77799;BME280;66989;50.426;15.352;2023-04-09T12:26:44;99093.88;;;8.89;82.95
77799;BME280;66989;50.426;15.352;2023-04-09T12:29:10;99088.97;;;8.99;82.40
77799;BME280;66989;50.426;15.352;2023-04-09T12:31:37;99082.63;;;9.03;81.92
77799;BME280;66989;50.426;15.352;2023-04-09T12:34:02;99079.59;;;9.25;77.11
77799;BME280;66989;50.426;15.352;2023-04-09T12:36:27;99079.00;;;9.36;75.37
77799;BME280;66989;50.426;15.352;2023-04-09T12:38:54;99081.19;;;9.27;77.16
77799;BME280;66989;50.426;15.352;2023-04-09T12:41:20;99073.81;;;9.34;78.30
77799;BME280;66989;50.426;15.352;2023-04-09T12:43:46;99072.94;;;9.34;78.40
77799;BME280;66989;50.426;15.352;2023-04-09T12:46:13;99069.16;;;9.53;78.38
77799;BME280;66989;50.426;15.352;2023-04-09T12:48:38;99067.03;;;9.60;78.39
77799;BME280;66989;50.426;15.352;2023-04-09T12:51:04;99069.03;;;9.71;78.62
77799;BME280;66989;50.426;15.352;2023-04-09T12:53:30;99065.38;;;9.73;75.49
77799;BME280;66989;50.426;15.352;2023-04-09T12:55:55;99078.84;;;9.83;74.05
77799;BME280;66989;50.426;15.352;2023-04-09T12:58:21;99074.63;;;9.95;74.00
77799;BME280;66989;50.426;15.352;2023-04-09T13:00:47;99070.28;;;9.94;74.58
77799;BME280;66989;50.426;15.352;2023-04-09T13:03:12;99076.34;;;10.10;75.08
77799;BME280;66989;50.426;15.352;2023-04-09T13:05:40;99068.38;;;10.40;77.41
77799;BME280;66989;50.426;15.352;2023-04-09T13:08:06;99072.97;;;10.65;74.48
77799;BME280;66989;50.426;15.352;2023-04-09T13:10:32;99071.16;;;10.80;73.26
77799;BME280;66989;50.426;15.352;2023-04-09T13:12:58;99064.28;;;11.04;73.39